Time;durP1;ratioP1;P1;durP2;ratioP2;P2;SDS_P1;SDS_P2;PMS_P1;PMS_P2;Temp;Humidity;BMP_temperature;BMP_pressure;BME280_temperature;BME280_humidity;BME280_pressure;Samples;Min_cycle;Max_cycle;Signal;HPM_P1;HPM_P2
2021/04/16 00:00:58;;;;;;;3.33;2.07;;;;;;;;;;5118640;28;20280;-75
2021/04/16 00:03:25;;;;;;;3.23;2.50;;;;;;;;;;5114288;28;20451;-75
2021/04/16 00:05:54;;;;;;;4.77;2.57;;;;;;;;;;5100400;28;20486;-75
2021/04/16 00:08:24;;;;;;;3.70;2.53;;;;;;;;;;5118261;28;20443;-75
2021/04/16 00:10:52;;;;;;;4.57;3.07;;;;;;;;;;5114379;28;20538;-75
2021/04/16 00:13:21;;;;;;;2.80;2.30;;;;;;;;;;5111767;28;20481;-75
2021/04/16 00:15:48;;;;;;;3.33;2.30;;;;;;;;;;5119169;28;20499;-75
2021/04/16 00:18:18;;;;;;;2.90;2.50;;;;;;;;;;5118364;28;20203;-74
2021/04/16 00:20:45;;;;;;;3.10;2.47;;;;;;;;;;5118376;27;20558;-75
2021/04/16 00:23:12;;;;;;;2.63;2.43;;;;;;;;;;5113478;28;20224;-75
2021/04/16 00:25:39;;;;;;;3.43;2.70;;;;;;;;;;5119707;28;20487;-75
2021/04/16 00:28:08;;;;;;;3.07;2.77;;;;;;;;;;5117841;28;20427;-75
2021/04/16 00:30:38;;;;;;;3.70;2.40;;;;;;;;;;5101575;28;20219;-75
2021/04/16 00:33:06;;;;;;;2.67;2.43;;;;;;;;;;5113713;28;20493;-75
2021/04/16 00:35:33;;;;;;;5.27;2.77;;;;;;;;;;5115250;28;20506;-75
2021/04/16 00:38:00;;;;;;;3.03;2.70;;;;;;;;;;5118561;28;20284;-75
2021/04/16 00:40:28;;;;;;;5.53;2.80;;;;;;;;;;5127785;27;20521;-75
2021/04/16 00:42:56;;;;;;;2.63;2.30;;;;;;;;;;5099069;28;20487;-75
2021/04/16 00:45:23;;;;;;;5.53;2.80;;;;;;;;;;5113059;28;20570;-75
2021/04/16 00:47:52;;;;;;;3.63;2.83;;;;;;;;;;5109968;28;20451;-75
2021/04/16 00:50:21;;;;;;;5.83;3.13;;;;;;;;;;5119186;28;20453;-75
2021/04/16 00:52:48;;;;;;;4.10;2.40;;;;;;;;;;5112416;28;20507;-75
2021/04/16 00:55:15;;;;;;;2.80;2.50;;;;;;;;;;5106516;28;20574;-75
2021/04/16 00:57:42;;;;;;;5.43;2.40;;;;;;;;;;5119445;28;20443;-75
2021/04/16 01:00:10;;;;;;;4.87;2.30;;;;;;;;;;5118382;28;20859;-75
2021/04/16 01:02:37;;;;;;;6.00;2.67;;;;;;;;;;5117333;28;20550;-75
2021/04/16 01:05:07;;;;;;;5.40;3.30;;;;;;;;;;5110155;28;20487;-75
2021/04/16 01:07:34;;;;;;;3.67;2.77;;;;;;;;;;5106184;28;20237;-75
2021/04/16 01:10:01;;;;;;;2.93;2.50;;;;;;;;;;5106936;28;20276;-75
2021/04/16 01:12:28;;;;;;;4.47;2.60;;;;;;;;;;5118277;28;20564;-75
2021/04/16 01:15:02;;;;;;;3.00;2.70;;;;;;;;;;5119239;28;20256;-75
2021/04/16 01:17:29;;;;;;;3.70;2.30;;;;;;;;;;5105276;28;20280;-75
2021/04/16 01:20:01;;;;;;;2.70;2.47;;;;;;;;;;5118083;28;20231;-75
2021/04/16 01:22:32;;;;;;;2.70;2.40;;;;;;;;;;5117763;28;20235;-75
2021/04/16 01:25:00;;;;;;;3.90;2.33;;;;;;;;;;5118849;28;20765;-75
2021/04/16 01:27:27;;;;;;;6.03;2.33;;;;;;;;;;5101940;28;20236;-75
2021/04/16 01:29:55;;;;;;;2.93;2.60;;;;;;;;;;5108782;28;20708;-75
2021/04/16 01:32:24;;;;;;;3.37;2.63;;;;;;;;;;5100302;28;20241;-74
2021/04/16 01:34:51;;;;;;;3.13;2.40;;;;;;;;;;5115502;28;20226;-75
2021/04/16 01:37:19;;;;;;;4.23;2.47;;;;;;;;;;5100390;28;20452;-75
2021/04/16 01:39:46;;;;;;;3.90;2.07;;;;;;;;;;5101058;27;20887;-75
2021/04/16 01:42:14;;;;;;;4.80;2.73;;;;;;;;;;5109848;28;20453;-75
2021/04/16 01:44:42;;;;;;;4.20;2.33;;;;;;;;;;5117576;28;20550;-75
2021/04/16 01:47:11;;;;;;;3.00;2.20;;;;;;;;;;5109138;27;20529;-75
2021/04/16 01:49:39;;;;;;;3.83;2.57;;;;;;;;;;5110290;28;20474;-75
2021/04/16 01:52:09;;;;;;;3.07;2.10;;;;;;;;;;5112496;28;20486;-75
2021/04/16 01:54:37;;;;;;;4.10;2.30;;;;;;;;;;5105794;28;20541;-75
2021/04/16 01:57:05;;;;;;;2.90;2.63;;;;;;;;;;5116782;28;20999;-75
2021/04/16 01:59:35;;;;;;;2.37;1.97;;;;;;;;;;5118352;28;20203;-75
2021/04/16 02:02:02;;;;;;;4.40;2.83;;;;;;;;;;5115080;28;20545;-75
2021/04/16 02:04:30;;;;;;;2.90;2.20;;;;;;;;;;5117191;28;20893;-75
2021/04/16 02:06:57;;;;;;;4.20;2.80;;;;;;;;;;5117000;28;21088;-75
2021/04/16 02:09:25;;;;;;;2.47;2.20;;;;;;;;;;5117564;28;20534;-75
2021/04/16 02:11:53;;;;;;;2.63;2.10;;;;;;;;;;5106614;28;20481;-75
2021/04/16 02:14:21;;;;;;;3.27;2.20;;;;;;;;;;5117496;28;20280;-75
2021/04/16 02:16:51;;;;;;;3.80;2.40;;;;;;;;;;5107389;28;20243;-75
2021/04/16 02:19:18;;;;;;;2.63;2.43;;;;;;;;;;5118215;28;20209;-75
2021/04/16 02:21:45;;;;;;;3.23;2.40;;;;;;;;;;5117223;28;20235;-74
2021/04/16 02:24:13;;;;;;;3.00;2.53;;;;;;;;;;5103580;28;20232;-75
2021/04/16 02:26:40;;;;;;;2.60;2.03;;;;;;;;;;5117060;28;20201;-75
2021/04/16 02:29:08;;;;;;;3.13;1.83;;;;;;;;;;5118181;28;20268;-75
2021/04/16 02:31:42;;;;;;;3.00;2.47;;;;;;;;;;5116216;28;20280;-75
2021/04/16 02:34:11;;;;;;;2.77;2.27;;;;;;;;;;5117100;28;20204;-75
2021/04/16 02:36:38;;;;;;;2.83;2.10;;;;;;;;;;5114178;28;20279;-75
2021/04/16 02:39:06;;;;;;;2.60;2.40;;;;;;;;;;5117219;28;20284;-75
2021/04/16 02:41:34;;;;;;;4.57;2.23;;;;;;;;;;5115380;28;20219;-75
2021/04/16 02:44:01;;;;;;;2.57;2.37;;;;;;;;;;5117742;28;20296;-75
2021/04/16 02:46:28;;;;;;;4.33;2.83;;;;;;;;;;5116333;28;20708;-75
2021/04/16 02:48:55;;;;;;;2.63;2.43;;;;;;;;;;5117942;28;20201;-75
2021/04/16 02:51:23;;;;;;;2.67;2.27;;;;;;;;;;5108623;28;20240;-75
2021/04/16 02:53:50;;;;;;;4.93;2.33;;;;;;;;;;5118047;28;20247;-75
2021/04/16 02:56:17;;;;;;;2.03;1.77;;;;;;;;;;5105695;28;20264;-75
2021/04/16 02:58:44;;;;;;;2.80;2.17;;;;;;;;;;5102530;28;20282;-76
2021/04/16 03:01:11;;;;;;;2.70;2.03;;;;;;;;;;5114711;28;20201;-75
2021/04/16 03:03:38;;;;;;;2.40;2.20;;;;;;;;;;5106259;28;20197;-75
2021/04/16 03:06:06;;;;;;;2.50;2.13;;;;;;;;;;5114882;28;20227;-75
2021/04/16 03:08:34;;;;;;;3.07;2.77;;;;;;;;;;5103980;28;20236;-75
2021/04/16 03:11:01;;;;;;;2.53;2.33;;;;;;;;;;5117205;28;20657;-75
2021/04/16 03:13:28;;;;;;;4.40;2.40;;;;;;;;;;5109352;28;20292;-75
2021/04/16 03:15:56;;;;;;;3.37;2.53;;;;;;;;;;5120981;28;20221;-75
2021/04/16 03:18:23;;;;;;;3.37;2.40;;;;;;;;;;5100340;28;20579;-75
2021/04/16 03:20:50;;;;;;;2.77;2.57;;;;;;;;;;5117721;28;20205;-76
2021/04/16 03:23:18;;;;;;;3.20;2.90;;;;;;;;;;5107256;28;20295;-75
2021/04/16 03:25:46;;;;;;;4.27;2.67;;;;;;;;;;5119063;28;21207;-75
2021/04/16 03:28:13;;;;;;;2.60;2.33;;;;;;;;;;5121242;28;20212;-75
2021/04/16 03:30:40;;;;;;;4.67;2.57;;;;;;;;;;5120123;28;20236;-75
2021/04/16 03:33:08;;;;;;;2.83;2.03;;;;;;;;;;5110580;28;20209;-75
2021/04/16 03:35:35;;;;;;;2.60;2.40;;;;;;;;;;5112539;28;20245;-74
2021/04/16 03:38:02;;;;;;;4.97;3.03;;;;;;;;;;5100590;28;20216;-75
2021/04/16 03:40:31;;;;;;;3.43;2.33;;;;;;;;;;5128413;27;20637;-74
2021/04/16 03:42:59;;;;;;;3.27;2.70;;;;;;;;;;5110792;27;20284;-75
2021/04/16 03:45:27;;;;;;;4.93;2.63;;;;;;;;;;5120590;28;20311;-75
2021/04/16 03:47:54;;;;;;;3.20;2.33;;;;;;;;;;5112336;27;20661;-75
2021/04/16 03:50:23;;;;;;;3.03;2.70;;;;;;;;;;5115384;28;20208;-75
2021/04/16 03:52:50;;;;;;;9.27;3.40;;;;;;;;;;5119452;28;20201;-75
2021/04/16 03:55:21;;;;;;;9.77;2.53;;;;;;;;;;5115908;28;20235;-74
2021/04/16 03:57:48;;;;;;;5.30;2.73;;;;;;;;;;5113201;28;20641;-75
2021/04/16 04:00:19;;;;;;;2.70;2.50;;;;;;;;;;5120767;28;20236;-75
2021/04/16 04:02:46;;;;;;;3.47;2.80;;;;;;;;;;5099720;28;20293;-75
2021/04/16 04:05:14;;;;;;;3.57;2.43;;;;;;;;;;5119332;28;20228;-75
2021/04/16 04:07:41;;;;;;;3.43;2.60;;;;;;;;;;5112870;27;20451;-74
2021/04/16 04:10:08;;;;;;;4.33;3.17;;;;;;;;;;5112243;28;20481;-74
2021/04/16 04:12:35;;;;;;;3.50;2.70;;;;;;;;;;5119193;28;20930;-75
2021/04/16 04:15:02;;;;;;;5.93;3.23;;;;;;;;;;5112462;28;20498;-74
2021/04/16 04:17:32;;;;;;;2.87;2.67;;;;;;;;;;5117936;28;20446;-75
2021/04/16 04:19:59;;;;;;;3.27;2.50;;;;;;;;;;5106374;28;20507;-74
2021/04/16 04:22:26;;;;;;;4.17;2.80;;;;;;;;;;5117317;28;20523;-74
2021/04/16 04:24:53;;;;;;;4.47;2.70;;;;;;;;;;5119676;28;20493;-74
2021/04/16 04:27:21;;;;;;;3.33;2.83;;;;;;;;;;5117081;28;20533;-74
2021/04/16 04:29:48;;;;;;;2.97;2.57;;;;;;;;;;5108459;28;20474;-74
2021/04/16 04:32:15;;;;;;;3.70;3.23;;;;;;;;;;5116231;28;21020;-74
2021/04/16 04:34:43;;;;;;;3.93;3.20;;;;;;;;;;5118513;28;20983;-75
2021/04/16 04:37:10;;;;;;;5.03;2.90;;;;;;;;;;5112509;28;20539;-74
2021/04/16 04:39:40;;;;;;;5.67;3.47;;;;;;;;;;5111151;28;20482;-75
2021/04/16 04:42:07;;;;;;;4.17;2.90;;;;;;;;;;5130857;27;20526;-74
2021/04/16 04:44:34;;;;;;;4.63;2.73;;;;;;;;;;5119698;28;20573;-75
2021/04/16 04:47:01;;;;;;;3.00;2.70;;;;;;;;;;5118753;28;20541;-75
2021/04/16 04:49:28;;;;;;;3.43;2.87;;;;;;;;;;5105665;28;20455;-75
2021/04/16 04:52:16;;;;;;;3.90;3.00;;;;;;;;;;5113865;28;20455;-75
2021/04/16 04:54:44;;;;;;;3.00;2.67;;;;;;;;;;5109375;28;20494;-75
2021/04/16 04:57:11;;;;;;;4.27;3.30;;;;;;;;;;5105668;28;20490;-74
2021/04/16 04:59:42;;;;;;;3.93;2.90;;;;;;;;;;5105365;28;20513;-75
2021/04/16 05:02:09;;;;;;;4.60;3.27;;;;;;;;;;5118360;28;20482;-74
2021/04/16 05:04:37;;;;;;;3.40;2.53;;;;;;;;;;5118738;28;20989;-74
2021/04/16 05:07:04;;;;;;;3.07;2.77;;;;;;;;;;5112759;28;20879;-75
2021/04/16 05:09:32;;;;;;;5.23;3.10;;;;;;;;;;5106119;28;20855;-74
2021/04/16 05:11:59;;;;;;;4.47;3.30;;;;;;;;;;5106393;28;20455;-74
2021/04/16 05:14:26;;;;;;;4.10;3.50;;;;;;;;;;5117676;28;20515;-74
2021/04/16 05:16:53;;;;;;;3.67;2.90;;;;;;;;;;5117833;27;20879;-74
2021/04/16 05:19:20;;;;;;;4.93;3.30;;;;;;;;;;5104540;28;20462;-75
2021/04/16 05:21:49;;;;;;;5.40;3.57;;;;;;;;;;5108789;28;20530;-74
2021/04/16 05:24:17;;;;;;;3.33;3.03;;;;;;;;;;5115894;28;20482;-75
2021/04/16 05:26:44;;;;;;;5.10;3.20;;;;;;;;;;5117882;28;21021;-74
2021/04/16 05:29:11;;;;;;;5.60;3.67;;;;;;;;;;5112920;28;20478;-75
2021/04/16 05:31:39;;;;;;;5.73;3.30;;;;;;;;;;5108666;28;20486;-75
2021/04/16 05:34:06;;;;;;;5.13;3.03;;;;;;;;;;5118520;28;21005;-76
2021/04/16 05:36:33;;;;;;;6.20;3.63;;;;;;;;;;5112416;28;20514;-76
2021/04/16 05:38:59;;;;;;;6.03;3.37;;;;;;;;;;5103311;28;21218;-75
2021/04/16 05:41:26;;;;;;;4.77;3.37;;;;;;;;;;5115117;27;20515;-75
2021/04/16 05:43:55;;;;;;;3.87;3.20;;;;;;;;;;5111902;28;20465;-76
2021/04/16 05:46:22;;;;;;;3.63;3.00;;;;;;;;;;5115721;28;20519;-76
2021/04/16 05:48:49;;;;;;;4.57;3.70;;;;;;;;;;5100675;28;20459;-75
2021/04/16 05:51:16;;;;;;;4.47;3.50;;;;;;;;;;5113869;28;20557;-76
2021/04/16 05:53:43;;;;;;;8.60;3.43;;;;;;;;;;5117238;28;20962;-75
2021/04/16 05:56:10;;;;;;;4.40;3.40;;;;;;;;;;5116186;28;20903;-75
2021/04/16 05:58:37;;;;;;;5.17;3.47;;;;;;;;;;5118479;28;20522;-76
2021/04/16 06:01:06;;;;;;;4.93;3.37;;;;;;;;;;5116287;28;20574;-78
2021/04/16 06:03:33;;;;;;;4.53;3.63;;;;;;;;;;5117848;27;20451;-78
2021/04/16 06:06:01;;;;;;;3.57;3.27;;;;;;;;;;5117638;28;20893;-77
2021/04/16 06:08:28;;;;;;;4.03;3.63;;;;;;;;;;5108357;28;20817;-77
2021/04/16 06:10:56;;;;;;;3.40;3.17;;;;;;;;;;5099723;28;20515;-78
2021/04/16 06:13:24;;;;;;;10.27;3.20;;;;;;;;;;5105849;28;20521;-77
2021/04/16 06:15:52;;;;;;;4.47;3.90;;;;;;;;;;5115748;28;20471;-77
2021/04/16 06:18:20;;;;;;;4.00;3.60;;;;;;;;;;5106579;28;20985;-77
2021/04/16 06:20:47;;;;;;;5.33;3.97;;;;;;;;;;5114300;28;21010;-77
2021/04/16 06:23:14;;;;;;;6.73;3.73;;;;;;;;;;5102762;28;20515;-76
2021/04/16 06:25:41;;;;;;;4.80;3.47;;;;;;;;;;5117702;27;20912;-77
2021/04/16 06:28:09;;;;;;;5.30;3.90;;;;;;;;;;5116903;28;20451;-76
2021/04/16 06:30:36;;;;;;;10.17;3.97;;;;;;;;;;5118076;28;20877;-77
2021/04/16 06:33:04;;;;;;;7.43;3.70;;;;;;;;;;5101891;28;21030;-76
2021/04/16 06:35:32;;;;;;;5.33;3.97;;;;;;;;;;5109643;28;20504;-77
2021/04/16 06:38:00;;;;;;;4.47;3.80;;;;;;;;;;5115758;28;20483;-77
2021/04/16 06:40:28;;;;;;;3.60;3.30;;;;;;;;;;5120976;28;20450;-77
2021/04/16 06:42:55;;;;;;;4.73;4.10;;;;;;;;;;5114388;27;20454;-76
2021/04/16 06:45:23;;;;;;;4.30;3.40;;;;;;;;;;5117515;28;21016;-77
2021/04/16 06:47:53;;;;;;;4.73;3.73;;;;;;;;;;5116704;28;20492;-76
2021/04/16 06:50:21;;;;;;;5.43;3.67;;;;;;;;;;5121649;28;20447;-77
2021/04/16 06:52:52;;;;;;;4.57;3.50;;;;;;;;;;5109948;28;20492;-77
2021/04/16 06:55:21;;;;;;;6.23;3.63;;;;;;;;;;5121781;28;20468;-77
2021/04/16 06:57:50;;;;;;;5.20;4.10;;;;;;;;;;5120709;27;20488;-77
2021/04/16 07:00:20;;;;;;;5.47;3.93;;;;;;;;;;5121816;28;20474;-76
2021/04/16 07:02:50;;;;;;;7.03;4.30;;;;;;;;;;5114415;28;20456;-77
2021/04/16 07:05:23;;;;;;;6.00;3.90;;;;;;;;;;5108397;28;20481;-76
2021/04/16 07:07:51;;;;;;;5.40;3.60;;;;;;;;;;5119640;28;20459;-77
2021/04/16 07:10:20;;;;;;;5.03;3.60;;;;;;;;;;5107172;28;21078;-77
2021/04/16 07:12:47;;;;;;;3.93;3.53;;;;;;;;;;5118928;28;20883;-77
2021/04/16 07:15:16;;;;;;;6.70;4.20;;;;;;;;;;5121354;28;20493;-77
2021/04/16 07:17:45;;;;;;;6.33;3.73;;;;;;;;;;5118938;27;20286;-77
2021/04/16 07:20:13;;;;;;;6.43;3.77;;;;;;;;;;5120178;28;20211;-77
2021/04/16 07:22:42;;;;;;;6.33;3.80;;;;;;;;;;5116587;28;20281;-77
2021/04/16 07:25:28;;;;;;;8.03;3.70;;;;;;;;;;5117462;28;20293;-77
2021/04/16 07:27:56;;;;;;;6.37;3.77;;;;;;;;;;5120782;28;20284;-77
2021/04/16 07:30:40;;;;;;;5.80;3.80;;;;;;;;;;5111180;28;20546;-77
2021/04/16 07:33:23;;;;;;;6.70;3.90;;;;;;;;;;5105396;28;20209;-77
2021/04/16 07:35:50;;;;;;;3.70;3.10;;;;;;;;;;5120721;28;20585;-77
2021/04/16 07:38:24;;;;;;;6.40;3.60;;;;;;;;;;5105746;28;20281;-76
2021/04/16 07:41:12;;;;;;;5.40;3.80;;;;;;;;;;5107353;28;20286;-76
2021/04/16 07:43:46;;;;;;;6.10;3.90;;;;;;;;;;5103764;28;20205;-76
2021/04/16 07:46:31;;;;;;;4.67;3.50;;;;;;;;;;5120750;28;20263;-77
2021/04/16 07:49:17;;;;;;;3.90;3.50;;;;;;;;;;5114730;28;20254;-76
2021/04/16 07:51:45;;;;;;;7.17;3.77;;;;;;;;;;5120910;28;20215;-77
2021/04/16 07:54:13;;;;;;;5.77;3.83;;;;;;;;;;5118660;28;20228;-77
2021/04/16 07:56:41;;;;;;;4.17;3.63;;;;;;;;;;5120516;28;20239;-77
2021/04/16 07:59:10;;;;;;;7.73;3.90;;;;;;;;;;5106468;28;20286;-77
2021/04/16 08:01:39;;;;;;;5.00;4.30;;;;;;;;;;5119394;28;20201;-77
2021/04/16 08:04:08;;;;;;;4.60;3.80;;;;;;;;;;5120319;28;20537;-76
2021/04/16 08:06:38;;;;;;;6.77;4.43;;;;;;;;;;5110471;28;20581;-77
2021/04/16 08:09:06;;;;;;;5.73;4.03;;;;;;;;;;5118112;28;20739;-77
2021/04/16 08:11:35;;;;;;;5.10;4.47;;;;;;;;;;5120406;28;20243;-78
2021/04/16 08:14:05;;;;;;;4.90;4.17;;;;;;;;;;5119541;28;20197;-77
2021/04/16 08:16:33;;;;;;;5.70;4.20;;;;;;;;;;5120117;28;20534;-77
2021/04/16 08:19:23;;;;;;;5.73;4.20;;;;;;;;;;5106597;28;20201;-77
2021/04/16 08:21:51;;;;;;;4.37;3.70;;;;;;;;;;5117776;28;20553;-76
2021/04/16 08:24:24;;;;;;;4.67;4.13;;;;;;;;;;5103672;28;20280;-77
2021/04/16 08:27:02;;;;;;;4.40;3.97;;;;;;;;;;5118648;28;20217;-77
2021/04/16 08:29:33;;;;;;;6.47;4.37;;;;;;;;;;5120136;28;20288;-77
2021/04/16 08:32:03;;;;;;;5.07;4.43;;;;;;;;;;5118939;28;20261;-77
2021/04/16 08:34:34;;;;;;;5.30;4.00;;;;;;;;;;5119390;28;20269;-77
2021/04/16 08:37:01;;;;;;;5.13;4.27;;;;;;;;;;5119989;28;20201;-77
2021/04/16 08:39:31;;;;;;;7.10;4.23;;;;;;;;;;5116857;28;20560;-77
2021/04/16 08:42:00;;;;;;;5.60;4.40;;;;;;;;;;5118998;28;20200;-76
2021/04/16 08:44:28;;;;;;;7.40;4.00;;;;;;;;;;5115331;28;20311;-77
2021/04/16 08:46:58;;;;;;;6.67;5.17;;;;;;;;;;5111811;28;20221;-77
2021/04/16 08:49:28;;;;;;;4.63;4.13;;;;;;;;;;5105790;28;20236;-77
2021/04/16 08:51:58;;;;;;;5.63;4.37;;;;;;;;;;5118636;28;20275;-77
2021/04/16 08:54:27;;;;;;;6.23;4.60;;;;;;;;;;5114390;28;20217;-77
2021/04/16 08:56:56;;;;;;;5.33;4.37;;;;;;;;;;5111305;28;20240;-77
2021/04/16 08:59:25;;;;;;;4.13;3.80;;;;;;;;;;5114612;28;20202;-76
2021/04/16 09:01:56;;;;;;;4.70;4.30;;;;;;;;;;5111061;28;20212;-76
2021/04/16 09:04:25;;;;;;;6.50;4.43;;;;;;;;;;5100116;28;20377;-77
2021/04/16 09:06:54;;;;;;;6.30;4.53;;;;;;;;;;5105168;28;20221;-76
2021/04/16 09:09:43;;;;;;;6.73;4.60;;;;;;;;;;5115797;28;20273;-77
2021/04/16 09:12:10;;;;;;;8.83;5.93;;;;;;;;;;5111816;28;20254;-77
2021/04/16 09:14:53;;;;;;;8.63;4.70;;;;;;;;;;5117969;28;20248;-77
2021/04/16 09:17:20;;;;;;;5.87;4.77;;;;;;;;;;5112746;28;20744;-77
2021/04/16 09:20:00;;;;;;;8.20;4.17;;;;;;;;;;5117485;28;20679;-75
2021/04/16 09:22:41;;;;;;;5.63;4.40;;;;;;;;;;5117029;28;20261;-75
2021/04/16 09:25:23;;;;;;;5.73;4.47;;;;;;;;;;5115993;27;20273;-75
2021/04/16 09:27:50;;;;;;;5.87;4.53;;;;;;;;;;5117368;27;20288;-75
2021/04/16 09:30:22;;;;;;;6.23;4.87;;;;;;;;;;5120576;27;20201;-75
2021/04/16 09:32:50;;;;;;;6.63;4.40;;;;;;;;;;5116361;27;20288;-75
2021/04/16 09:35:35;;;;;;;6.77;4.40;;;;;;;;;;5120155;27;20250;-74
2021/04/16 09:38:26;;;;;;;6.10;4.53;;;;;;;;;;5114155;27;20201;-74
2021/04/16 09:41:07;;;;;;;8.07;4.80;;;;;;;;;;5116525;28;20201;-74
2021/04/16 09:43:34;;;;;;;6.50;4.87;;;;;;;;;;5113878;28;20217;-75
2021/04/16 09:46:22;;;;;;;6.20;4.57;;;;;;;;;;5116594;28;20221;-75
2021/04/16 09:48:50;;;;;;;5.73;5.10;;;;;;;;;;5104315;28;20197;-76
2021/04/16 09:51:31;;;;;;;5.60;5.03;;;;;;;;;;5115802;28;20250;-75
2021/04/16 09:54:28;;;;;;;6.10;4.30;;;;;;;;;;5116421;27;20303;-76
2021/04/16 09:57:14;;;;;;;5.87;4.90;;;;;;;;;;5053824;28;20203;-75
2021/04/16 09:59:43;;;;;;;5.20;4.70;;;;;;;;;;5099518;28;20244;-76
2021/04/16 10:02:19;;;;;;;8.27;6.57;;;;;;;;;;5115387;28;20682;-76
2021/04/16 10:04:50;;;;;;;6.40;4.87;;;;;;;;;;5106662;28;20232;-75
2021/04/16 10:07:18;;;;;;;7.10;5.63;;;;;;;;;;5102848;28;20324;-75
2021/04/16 10:09:45;;;;;;;7.67;5.10;;;;;;;;;;5110421;28;20670;-75
2021/04/16 10:12:16;;;;;;;6.33;4.73;;;;;;;;;;5105964;28;20596;-75
2021/04/16 10:14:44;;;;;;;6.67;5.43;;;;;;;;;;5117112;28;20220;-75
2021/04/16 10:17:19;;;;;;;5.53;5.00;;;;;;;;;;5118079;28;20300;-75
2021/04/16 10:19:47;;;;;;;6.17;4.80;;;;;;;;;;5102586;28;20199;-76
2021/04/16 10:22:17;;;;;;;7.53;5.33;;;;;;;;;;5121440;28;20299;-75
2021/04/16 12:39:33;;;;;;;5.07;4.10;;;;;;;;;;5111818;28;20655;-76
2021/04/16 12:42:02;;;;;;;4.60;4.10;;;;;;;;;;5107691;28;20238;-74
2021/04/16 12:44:34;;;;;;;4.20;3.70;;;;;;;;;;5106784;28;20308;-73
2021/04/16 12:47:02;;;;;;;6.73;4.10;;;;;;;;;;5107932;28;20284;-75
2021/04/16 12:49:30;;;;;;;5.93;4.63;;;;;;;;;;5107796;27;20201;-76
2021/04/16 12:51:58;;;;;;;5.77;4.20;;;;;;;;;;5106930;28;20281;-77
2021/04/16 12:54:24;;;;;;;6.30;5.20;;;;;;;;;;5104025;28;20221;-76
2021/04/16 12:56:51;;;;;;;4.43;3.97;;;;;;;;;;5107830;28;20280;-78
2021/04/16 12:59:20;;;;;;;5.47;3.80;;;;;;;;;;5107291;28;20201;-76
2021/04/16 13:01:49;;;;;;;4.80;4.30;;;;;;;;;;5106134;28;20230;-77
2021/04/16 13:04:17;;;;;;;4.20;3.80;;;;;;;;;;5106242;28;20241;-76
2021/04/16 13:06:46;;;;;;;5.20;3.63;;;;;;;;;;5103574;28;20253;-75
2021/04/16 13:09:13;;;;;;;5.43;3.73;;;;;;;;;;5108217;28;20284;-76
2021/04/16 13:11:41;;;;;;;6.70;3.67;;;;;;;;;;5111484;28;20241;-75
2021/04/16 13:14:08;;;;;;;4.20;3.70;;;;;;;;;;5107460;28;20296;-74
2021/04/16 13:16:36;;;;;;;4.23;3.43;;;;;;;;;;5119157;28;20287;-75
2021/04/16 13:19:07;;;;;;;4.60;4.10;;;;;;;;;;5109924;28;20251;-76
2021/04/16 13:21:35;;;;;;;4.23;3.83;;;;;;;;;;5100220;28;20213;-75
2021/04/16 13:24:03;;;;;;;6.07;3.90;;;;;;;;;;5119083;28;20238;-76
2021/04/16 13:26:30;;;;;;;4.20;3.80;;;;;;;;;;5104455;28;20811;-76
2021/04/16 13:28:57;;;;;;;3.63;3.33;;;;;;;;;;5119143;28;20204;-77
2021/04/16 13:31:25;;;;;;;6.63;4.10;;;;;;;;;;5107015;28;20642;-76
2021/04/16 13:33:53;;;;;;;5.23;3.73;;;;;;;;;;5117577;28;20291;-76
2021/04/16 13:36:23;;;;;;;5.43;3.57;;;;;;;;;;5117481;28;20251;-75
2021/04/16 13:38:51;;;;;;;4.93;3.80;;;;;;;;;;5119273;28;20205;-76
2021/04/16 13:41:18;;;;;;;3.47;3.17;;;;;;;;;;5105209;27;20291;-76
2021/04/16 13:43:45;;;;;;;3.93;3.40;;;;;;;;;;5116670;28;20197;-76
2021/04/16 13:46:14;;;;;;;4.73;4.13;;;;;;;;;;5118347;28;20335;-75
2021/04/16 13:48:42;;;;;;;5.87;4.20;;;;;;;;;;5117523;28;20228;-76
2021/04/16 13:51:09;;;;;;;4.90;3.80;;;;;;;;;;5110639;28;20275;-76
2021/04/16 13:53:37;;;;;;;8.80;4.43;;;;;;;;;;5111397;28;20233;-76
2021/04/16 13:56:05;;;;;;;4.83;4.27;;;;;;;;;;5111509;28;20225;-77
2021/04/16 13:58:32;;;;;;;4.73;4.17;;;;;;;;;;5117753;28;20208;-76
2021/04/16 14:00:59;;;;;;;5.10;4.47;;;;;;;;;;5116191;28;20660;-76
2021/04/16 14:03:28;;;;;;;4.90;4.30;;;;;;;;;;5106531;28;20291;-75
2021/04/16 14:05:56;;;;;;;4.20;3.80;;;;;;;;;;5116294;28;20229;-76
2021/04/16 14:08:28;;;;;;;6.00;4.17;;;;;;;;;;5118484;28;20267;-76
2021/04/16 14:10:56;;;;;;;5.23;4.70;;;;;;;;;;5108807;28;20221;-74
2021/04/16 14:13:27;;;;;;;5.23;4.00;;;;;;;;;;5101174;28;20227;-77
2021/04/16 14:15:54;;;;;;;6.37;4.53;;;;;;;;;;5108218;28;20278;-75
2021/04/16 14:18:29;;;;;;;5.57;4.10;;;;;;;;;;5105430;28;20236;-74
2021/04/16 14:20:56;;;;;;;5.17;4.67;;;;;;;;;;5104602;28;20204;-76
2021/04/16 14:23:24;;;;;;;8.43;4.67;;;;;;;;;;5111308;28;20221;-76
2021/04/16 14:25:51;;;;;;;5.10;4.60;;;;;;;;;;5106297;28;20280;-80
2021/04/16 14:28:19;;;;;;;6.47;4.70;;;;;;;;;;5126832;28;20196;-76
2021/04/16 14:30:46;;;;;;;7.73;4.90;;;;;;;;;;5117167;27;20730;-76
2021/04/16 14:33:15;;;;;;;8.67;5.00;;;;;;;;;;5117874;28;20656;-77
2021/04/16 14:35:42;;;;;;;5.07;4.47;;;;;;;;;;5117941;28;20224;-76
2021/04/16 14:38:09;;;;;;;7.67;4.73;;;;;;;;;;5118239;28;20236;-78
2021/04/16 14:40:36;;;;;;;5.33;4.10;;;;;;;;;;5118011;28;20273;-78
2021/04/16 14:43:04;;;;;;;7.53;4.77;;;;;;;;;;5117883;28;20209;-78
2021/04/16 14:45:33;;;;;;;5.67;4.63;;;;;;;;;;5117833;28;20257;-78
2021/04/16 14:48:01;;;;;;;6.13;4.80;;;;;;;;;;5114372;28;20229;-79
2021/04/16 14:50:29;;;;;;;4.83;4.40;;;;;;;;;;5117866;28;20233;-78
2021/04/16 14:52:59;;;;;;;6.37;4.47;;;;;;;;;;5117859;28;20556;-78
2021/04/16 14:55:28;;;;;;;5.30;4.17;;;;;;;;;;5117949;28;20236;-79
2021/04/16 14:57:57;;;;;;;5.17;4.50;;;;;;;;;;5117969;28;20236;-80
2021/04/16 15:00:25;;;;;;;7.57;4.87;;;;;;;;;;5117622;28;20725;-79
2021/04/16 15:02:53;;;;;;;5.40;4.50;;;;;;;;;;5118108;28;20288;-78
2021/04/16 15:05:21;;;;;;;5.07;4.57;;;;;;;;;;5108057;28;20325;-79
2021/04/16 15:07:50;;;;;;;6.93;4.40;;;;;;;;;;5119965;28;20221;-79
2021/04/16 15:10:18;;;;;;;6.20;4.70;;;;;;;;;;5113957;28;20197;-78
2021/04/16 15:12:45;;;;;;;8.07;4.97;;;;;;;;;;5113326;28;20229;-77
2021/04/16 15:15:17;;;;;;;5.97;4.50;;;;;;;;;;5107236;28;20275;-79
2021/04/16 15:17:44;;;;;;;5.17;4.37;;;;;;;;;;5110675;28;20288;-79
2021/04/16 15:20:13;;;;;;;8.20;4.63;;;;;;;;;;5108093;28;20251;-79
2021/04/16 15:22:40;;;;;;;6.40;4.90;;;;;;;;;;5109507;28;20255;-79
2021/04/16 15:25:07;;;;;;;5.43;3.90;;;;;;;;;;5107676;28;20260;-79
2021/04/16 15:27:37;;;;;;;4.43;4.03;;;;;;;;;;5107735;28;20260;-79
2021/04/16 15:30:06;;;;;;;5.50;4.27;;;;;;;;;;5109816;28;20242;-79
2021/04/16 15:32:36;;;;;;;4.20;3.80;;;;;;;;;;5121479;28;20274;-80
2021/04/16 15:46:03;;;;;;;5.33;3.00;;;;;;;;;;5120650;28;20263;-79
2021/04/16 15:48:32;;;;;;;3.57;3.23;;;;;;;;;;5107132;28;20205;-78
2021/04/16 15:51:00;;;;;;;5.33;3.10;;;;;;;;;;5114940;28;20196;-77
2021/04/16 15:53:29;;;;;;;3.37;2.93;;;;;;;;;;5106437;28;20567;-76
2021/04/16 15:55:57;;;;;;;5.07;3.10;;;;;;;;;;5108318;28;20221;-79
2021/04/16 15:58:26;;;;;;;4.00;3.00;;;;;;;;;;5107389;28;20212;-79
2021/04/16 16:00:54;;;;;;;8.67;3.33;;;;;;;;;;5108228;28;20224;-80
2021/04/16 16:03:22;;;;;;;3.20;2.90;;;;;;;;;;5107176;28;20200;-81
2021/04/16 16:05:49;;;;;;;2.50;2.13;;;;;;;;;;5105841;28;20232;-80
2021/04/16 16:08:17;;;;;;;3.27;2.40;;;;;;;;;;5108266;28;20280;-81
2021/04/16 16:10:46;;;;;;;2.73;2.33;;;;;;;;;;5108964;27;20204;-81
2021/04/16 16:13:16;;;;;;;2.70;2.10;;;;;;;;;;5113750;27;20225;-82
2021/04/16 16:15:45;;;;;;;2.00;1.83;;;;;;;;;;5107757;28;20249;-81
2021/04/16 16:18:15;;;;;;;3.83;2.17;;;;;;;;;;5109766;28;20228;-81
2021/04/16 16:20:43;;;;;;;2.47;1.97;;;;;;;;;;5107519;28;20228;-83
2021/04/16 16:23:11;;;;;;;2.07;1.87;;;;;;;;;;5108432;28;20197;-82
2021/04/16 16:25:38;;;;;;;2.13;1.90;;;;;;;;;;5105647;28;20263;-81
2021/04/16 16:28:12;;;;;;;4.90;2.10;;;;;;;;;;5109036;28;20216;-81
2021/04/16 16:30:39;;;;;;;2.53;1.67;;;;;;;;;;5106247;28;20240;-78
2021/04/16 16:33:06;;;;;;;3.20;1.90;;;;;;;;;;5108045;28;20225;-82
2021/04/16 16:35:35;;;;;;;3.67;3.00;;;;;;;;;;5106302;28;20221;-80
2021/04/16 16:38:03;;;;;;;3.80;2.00;;;;;;;;;;5110437;28;20204;-79
2021/04/16 16:40:30;;;;;;;2.03;1.93;;;;;;;;;;5107848;28;20979;-81
2021/04/16 16:42:58;;;;;;;4.33;2.03;;;;;;;;;;5107890;28;20225;-79
2021/04/16 16:45:27;;;;;;;3.57;1.50;;;;;;;;;;5105198;28;20787;-81
2021/04/16 16:47:54;;;;;;;2.50;1.80;;;;;;;;;;5106706;28;20220;-78
2021/04/16 16:50:22;;;;;;;2.57;1.90;;;;;;;;;;5110096;28;20708;-82
2021/04/16 16:52:49;;;;;;;7.53;2.00;;;;;;;;;;5105070;28;20205;-79
2021/04/16 16:55:17;;;;;;;2.90;1.87;;;;;;;;;;5106091;28;20311;-79
2021/04/16 16:57:44;;;;;;;4.00;1.90;;;;;;;;;;5110233;27;20324;-79
2021/04/16 17:00:12;;;;;;;5.83;1.90;;;;;;;;;;5108847;28;20198;-78
2021/04/16 17:02:40;;;;;;;3.13;2.27;;;;;;;;;;5120350;27;20260;-79
2021/04/16 17:05:08;;;;;;;1.77;1.67;;;;;;;;;;5139515;27;20234;-77
2021/04/16 17:07:35;;;;;;;2.43;2.23;;;;;;;;;;5108469;27;20276;-75
2021/04/16 17:10:04;;;;;;;3.20;1.73;;;;;;;;;;5106762;28;20235;-75
2021/04/16 17:12:31;;;;;;;6.83;2.07;;;;;;;;;;5104085;28;20552;-77
2021/04/16 17:14:58;;;;;;;7.10;4.53;;;;;;;;;;5109135;28;20252;-79
2021/04/16 17:17:25;;;;;;;2.10;1.53;;;;;;;;;;5104811;28;20194;-80
2021/04/16 17:19:54;;;;;;;3.00;1.63;;;;;;;;;;5106173;28;20624;-80